createdAt,value
2023-01-15T00:02:16.957Z,1.70
2023-01-15T00:04:45.778Z,1.72
2023-01-15T00:07:14.532Z,1.66
2023-01-15T00:09:44.668Z,1.87
2023-01-15T00:12:13.273Z,1.57
2023-01-15T00:14:41.855Z,1.64
2023-01-15T00:17:10.420Z,1.61
2023-01-15T00:19:39.432Z,1.55
2023-01-15T00:22:08.355Z,1.51
2023-01-15T00:24:54.913Z,1.81
2023-01-15T00:31:28.071Z,2.14
2023-01-15T00:34:01.119Z,2.12
2023-01-15T00:36:29.677Z,2.12
2023-01-15T00:39:02.230Z,2.15
2023-01-15T00:46:09.555Z,1.94
2023-01-15T00:48:38.094Z,1.94
2023-01-15T00:51:07.791Z,1.97
2023-01-15T00:53:38.093Z,2.12
2023-01-15T00:56:07.053Z,2.05
2023-01-15T00:58:35.825Z,2.14
2023-01-15T01:01:04.414Z,2.40
2023-01-15T01:03:40.597Z,2.54
2023-01-15T01:06:10.417Z,2.18
2023-01-15T01:08:39.088Z,2.12
2023-01-15T01:12:30.700Z,2.22
2023-01-15T01:14:59.460Z,2.18
2023-01-15T01:17:28.713Z,2.15
2023-01-15T01:24:08.546Z,2.28
2023-01-15T01:31:12.864Z,2.23
2023-01-15T01:33:41.411Z,2.43
2023-01-15T01:36:09.839Z,2.05
2023-01-15T01:39:32.586Z,2.41
2023-01-15T01:42:02.318Z,2.38
2023-01-15T01:45:09.532Z,2.40
2023-01-15T01:47:38.098Z,2.29
2023-01-15T01:50:17.011Z,2.15
2023-01-15T01:52:50.772Z,2.21
2023-01-15T01:55:20.569Z,2.26
2023-01-15T01:57:53.821Z,2.24
2023-01-15T02:01:18.625Z,2.18
2023-01-15T02:03:47.297Z,2.47
2023-01-15T02:06:17.325Z,2.37
2023-01-15T02:09:15.819Z,2.18
2023-01-15T02:11:44.789Z,2.35
2023-01-15T02:14:18.432Z,2.39
2023-01-15T02:16:57.015Z,2.32
2023-01-15T02:19:46.379Z,2.38
2023-01-15T02:22:40.259Z,2.27
2023-01-15T02:25:13.697Z,2.15
2023-01-15T02:28:58.549Z,2.50
2023-01-15T02:36:01.707Z,2.28
2023-01-15T02:39:16.915Z,2.38
2023-01-15T02:41:55.538Z,2.43
2023-01-15T02:44:38.867Z,2.44
2023-01-15T02:47:08.899Z,2.56
2023-01-15T02:49:39.467Z,2.49
2023-01-15T02:56:45.997Z,2.25
2023-01-15T02:59:24.576Z,2.37
2023-01-15T03:01:58.723Z,2.01
2023-01-15T03:04:31.821Z,1.89
2023-01-15T03:07:27.559Z,1.92
2023-01-15T03:09:58.179Z,1.85
2023-01-15T03:12:29.801Z,1.90
2023-01-15T03:19:35.608Z,1.91
2023-01-15T03:22:50.960Z,1.77
2023-01-15T03:26:11.491Z,1.46
2023-01-15T03:28:44.715Z,1.45
2023-01-15T03:31:13.108Z,1.76
2023-01-15T03:33:47.110Z,2.09
2023-01-15T03:36:20.373Z,1.64
2023-01-15T03:39:18.028Z,1.59
2023-01-15T03:42:33.516Z,1.77
2023-01-15T03:45:12.330Z,1.84
2023-01-15T03:47:49.041Z,1.42
2023-01-15T03:50:24.590Z,1.54
2023-01-15T03:53:26.069Z,1.41
2023-01-15T03:56:03.247Z,1.51
2023-01-15T03:58:51.733Z,1.75
2023-01-15T04:01:50.211Z,1.74
2023-01-15T04:04:32.150Z,1.64
2023-01-15T04:07:04.664Z,1.86
2023-01-15T04:15:02.656Z,1.52
2023-01-15T04:22:05.265Z,1.13
2023-01-15T04:24:33.600Z,1.21
2023-01-15T04:27:02.091Z,1.42
2023-01-15T04:29:30.663Z,1.39
2023-01-15T04:31:59.093Z,1.55
2023-01-15T04:34:28.368Z,1.57
2023-01-15T04:37:49.601Z,1.35
2023-01-15T04:40:33.342Z,1.50
2023-01-15T04:56:01.538Z,1.37
2023-01-15T04:58:30.390Z,1.10
2023-01-15T05:02:15.830Z,1.04
2023-01-15T05:05:10.332Z,0.99
2023-01-15T05:07:39.400Z,0.84
2023-01-15T05:10:08.339Z,0.78
2023-01-15T05:12:39.503Z,0.87
2023-01-15T05:15:08.861Z,0.72
2023-01-15T05:17:38.259Z,0.95
2023-01-15T05:20:08.003Z,0.78
2023-01-15T05:22:38.477Z,0.72
2023-01-15T05:25:08.060Z,0.80
2023-01-15T05:27:42.804Z,0.62
2023-01-15T05:30:13.261Z,0.63
2023-01-15T05:32:41.729Z,0.69
2023-01-15T05:35:11.273Z,0.64
2023-01-15T05:38:08.083Z,0.48
2023-01-15T05:40:37.836Z,0.53
2023-01-15T05:43:07.887Z,0.61
2023-01-15T05:45:39.348Z,0.49
2023-01-15T05:52:36.246Z,0.34
2023-01-15T05:55:05.453Z,0.33
2023-01-15T05:57:33.991Z,0.32
2023-01-15T06:00:04.005Z,0.48
2023-01-15T06:02:41.352Z,0.64
2023-01-15T06:09:16.466Z,0.32
2023-01-15T06:11:45.084Z,0.42
2023-01-15T06:14:41.047Z,0.29
2023-01-15T06:17:11.980Z,0.39
2023-01-15T06:19:40.878Z,0.29
2023-01-15T06:22:11.086Z,0.05
2023-01-15T06:25:37.050Z,0.08
2023-01-15T06:28:05.831Z,0.12
2023-01-15T06:30:41.793Z,0.12
2023-01-15T06:33:36.393Z,0.07
2023-01-15T06:36:06.243Z,-0.02
2023-01-15T06:38:34.838Z,-0.08
2023-01-15T06:41:04.210Z,0.13
2023-01-15T06:47:32.287Z,0.48
2023-01-15T06:50:02.763Z,0.42
2023-01-15T06:52:31.747Z,0.84
2023-01-15T06:55:00.372Z,0.59
2023-01-15T06:57:29.063Z,0.65
2023-01-15T07:04:07.634Z,0.77
2023-01-15T07:06:37.409Z,0.78
2023-01-15T07:09:06.183Z,1.02
2023-01-15T07:11:34.717Z,1.32
2023-01-15T07:15:31.960Z,1.63
2023-01-15T07:18:00.338Z,1.36
2023-01-15T07:20:28.769Z,1.14
2023-01-15T07:22:59.552Z,1.10
2023-01-15T07:25:34.966Z,1.23
2023-01-15T07:33:05.361Z,1.49
2023-01-15T07:35:35.936Z,1.56
2023-01-15T07:38:06.582Z,1.80
2023-01-15T07:52:29.848Z,2.83
2023-01-15T07:54:59.554Z,2.90
2023-01-15T07:57:53.829Z,2.83
2023-01-15T08:00:24.106Z,3.26
2023-01-15T08:03:11.852Z,3.32
2023-01-15T08:06:09.232Z,3.55
2023-01-15T08:08:37.537Z,3.44
2023-01-15T08:11:25.160Z,3.49
2023-01-15T08:15:10.713Z,3.49
2023-01-15T08:17:39.351Z,3.62
2023-01-15T08:20:09.697Z,3.65
2023-01-15T08:22:38.703Z,3.97
2023-01-15T08:25:09.274Z,3.76
2023-01-15T08:28:06.705Z,3.99
2023-01-15T08:30:35.037Z,3.99
2023-01-15T08:33:04.356Z,4.13
2023-01-15T08:35:34.318Z,4.23
2023-01-15T13:59:29.685Z,6.67
2023-01-15T14:03:33.198Z,6.57
2023-01-15T15:03:49.318Z,5.96
2023-01-15T15:10:53.032Z,5.88
2023-01-15T18:40:21.517Z,5.25
2023-01-15T23:49:27.705Z,4.41
2023-01-15T23:51:57.871Z,4.40
2023-01-15T23:58:00.578Z,4.25
